Wind Star — C6CA9 — position and weather

sailwx.info

Track history (hours):
 
Tides and Currents Weather Stations Pressure Air Temp Water Temp Dewpoint Dewpoint Depression Visibility Wind Speed Wind Dir Waves Ship Positions

Wind Star

Operator: Holland America Line

Last reported at 2019-Oct-14 04:39 UTC. Time now 2019-Oct-18 09:08 UTC.
Position N 37°24' E 025°55'.

Length 134 m; draft 4.1 m.

Type: Ship. MMSI: 309163000.

Date/timePositionNaut miles runAvg speedWind from/ knotsBaromVisibWave heightAir tempDewpointWater temp
2019-Oct-14 04:39N 37°24' E 025°55'212.7
2019-Oct-14 04:30N 37°23' E 025°53'612.1
2019-Oct-14 04:00N 37°23' E 025°45'611.2
2019-Oct-14 03:30N 37°22' E 025°38'511.0
2019-Oct-14 03:00N 37°21' E 025°31'611.0
2019-Oct-14 02:30N 37°21' E 025°25'611.2
2019-Oct-14 02:00N 37°20' E 025°18'611.4
2019-Oct-14 01:31N 37°20' E 025°10'611.2
2019-Oct-14 01:00N 37°19' E 025°03'611.2
2019-Oct-14 00:30N 37°19' E 024°56'510.9
2019-Oct-14 00:00N 37°18' E 024°50'7710.6
2019-Oct-13 16:44N 37°10' E 023°13'311.3
2019-Oct-13 16:28N 37°11' E 023°09'710.4
2019-Oct-13 15:50N 37°14' E 023°02'410.8
2019-Oct-13 15:29N 37°17' E 022°59'1910.6
2019-Oct-13 13:41N 37°34' E 022°47'0 0.7
2019-Oct-13 13:21N 37°34' E 022°47'0 0.0
2019-Oct-13 09:42N 37°34' E 022°47'0 0.0
2019-Oct-13 09:18N 37°34' E 022°47'0 0.0
2019-Oct-13 08:45N 37°34' E 022°47'0 0.0
2019-Oct-13 08:21N 37°34' E 022°47'0 0.0
2019-Oct-13 07:54N 37°34' E 022°47'0 0.0
2019-Oct-13 07:21N 37°34' E 022°47'0 0.0
2019-Oct-13 06:45N 37°34' E 022°47'0 0.0
2019-Oct-13 06:24N 37°34' E 022°47'0 0.0
2019-Oct-13 05:45N 37°34' E 022°47'0 0.0
2019-Oct-13 05:27N 37°34' E 022°47'0 0.0
2019-Oct-13 05:00N 37°34' E 022°47'0 0.0
2019-Oct-13 04:29N 37°34' E 022°47'19 6.9
2019-Oct-13 01:45N 37°17' E 022°58'2 8.1
2019-Oct-13 01:26N 37°15' E 022°60'7 7.9
2019-Oct-13 00:30N 37°09' E 023°04'4 6.1
2019-Oct-12 23:50N 37°07' E 023°09'4 8.0
2019-Oct-12 23:23N 37°07' E 023°13'8 8.4
2019-Oct-12 22:27N 37°09' E 023°23'29 5.1
2019-Oct-12 16:44N 37°33' E 023°44'2 8.0
2019-Oct-12 16:30N 37°35' E 023°44'4 8.6
2019-Oct-12 16:00N 37°39' E 023°43'4 8.9
2019-Oct-12 15:30N 37°43' E 023°40'5 9.2
2019-Oct-12 15:00N 37°47' E 023°38'5 9.8
2019-Oct-12 14:30N 37°52' E 023°36'5 9.2
2019-Oct-12 14:00N 37°56' E 023°38'0 0.4
2019-Oct-12 13:30N 37°56' E 023°38'0 0.0
2019-Oct-12 13:00N 37°56' E 023°38'0 0.0
2019-Oct-12 12:30N 37°56' E 023°38'0 0.0
2019-Oct-12 12:00N 37°56' E 023°38'0 0.0
2019-Oct-12 11:30N 37°56' E 023°38'0 0.0
2019-Oct-12 11:00N 37°56' E 023°38'0 0.0
2019-Oct-12 10:30N 37°56' E 023°38'0 0.0
2019-Oct-12 10:00N 37°56' E 023°38'0 0.0
2019-Oct-12 09:30N 37°56' E 023°38'0 0.0
2019-Oct-12 09:00N 37°56' E 023°38'0 0.0
2019-Oct-12 08:30N 37°56' E 023°38'0 0.0
2019-Oct-12 08:00N 37°56' E 023°38'0 0.0
2019-Oct-12 07:30N 37°56' E 023°38'0 0.0
2019-Oct-12 07:00N 37°56' E 023°38'0 0.0
2019-Oct-12 06:30N 37°56' E 023°38'0 0.0
2019-Oct-12 06:00N 37°56' E 023°38'0 0.0
2019-Oct-12 05:30N 37°56' E 023°38'0 0.0
2019-Oct-12 05:00N 37°56' E 023°38'0 0.0
2019-Oct-12 04:30N 37°56' E 023°38'0 0.0
2019-Oct-12 04:00N 37°56' E 023°38'0 0.0
2019-Oct-12 03:30N 37°56' E 023°38'2 3.1
2019-Oct-12 03:00N 37°56' E 023°36'4 7.7
2019-Oct-12 02:30N 37°52' E 023°38'4 7.3
2019-Oct-12 02:00N 37°49' E 023°40'4 7.1
2019-Oct-12 01:30N 37°45' E 023°42'4 7.1
2019-Oct-12 01:00N 37°42' E 023°44'4 7.3
2019-Oct-12 00:30N 37°39' E 023°46'4 7.5
2019-Oct-12 00:00N 37°35' E 023°46'4 7.9
2019-Oct-11 23:28N 37°31' E 023°47'35 6.4
2019-Oct-11 17:59N 37°09' E 023°12'7 7.7
2019-Oct-11 17:06N 37°09' E 023°04'8 8.7
2019-Oct-11 16:14N 37°16' E 022°59'21 8.5
2019-Oct-11 13:49N 37°34' E 022°47'0 0.3
2019-Oct-11 13:20N 37°34' E 022°47'0 0.0
2019-Oct-11 12:59N 37°34' E 022°47'0 0.0
2019-Oct-11 12:29N 37°34' E 022°47'0 0.0
2019-Oct-11 11:59N 37°34' E 022°47'0 0.0
2019-Oct-11 09:38N 37°34' E 022°47'0 0.0
2019-Oct-11 09:23N 37°34' E 022°47'0 0.0
2019-Oct-11 08:23N 37°34' E 022°47'0 0.0
2019-Oct-11 07:59N 37°34' E 022°47'0 0.0
2019-Oct-11 06:53N 37°34' E 022°47'0 0.0
2019-Oct-11 06:08N 37°34' E 022°47'0 0.0
2019-Oct-11 05:26N 37°34' E 022°47'0 0.0
2019-Oct-11 04:56N 37°34' E 022°47'0 0.0
2019-Oct-11 04:14N 37°34' E 022°47'0 0.5
2019-Oct-11 03:52N 37°34' E 022°47'19 5.8
2019-Oct-11 00:37N 37°17' E 022°58'2 5.8
2019-Oct-11 00:19N 37°16' E 022°59'3 5.8
2019-Oct-10 23:45N 37°13' E 023°01'1 5.3
2019-Oct-10 23:30N 37°12' E 023°02'4 4.7
2019-Oct-10 22:38N 37°08' E 023°05'1 4.6
2019-Oct-10 22:19N 37°07' E 023°05'3 4.9
2019-Oct-10 21:43N 37°04' E 023°07'1 4.9
2019-Oct-10 21:30N 37°03' E 023°07'  
2019-Oct-06 18:16N 37°45' E 025°45'2 8.6
2019-Oct-06 18:00N 37°44' E 025°43'4 8.7
2019-Oct-06 17:31N 37°42' E 025°39'4 8.5
2019-Oct-06 17:00N 37°39' E 025°34'4 8.5
2019-Oct-06 16:30N 37°37' E 025°30'4 8.4
2019-Oct-06 16:00N 37°35' E 025°25'611.1
2019-Oct-06 15:30N 37°32' E 025°19'4 8.5
2019-Oct-06 15:01N 37°28' E 025°18'1 1.8
2019-Oct-06 14:27N 37°27' E 025°19'0 0.0
2019-Oct-06 13:57N 37°27' E 025°19'0 0.0
2019-Oct-06 13:30N 37°27' E 025°19'0 0.0
2019-Oct-06 12:57N 37°27' E 025°19'0 0.0
2019-Oct-06 12:30N 37°27' E 025°19'0 0.0
2019-Oct-06 12:00N 37°27' E 025°19'0 0.0
2019-Oct-06 11:30N 37°27' E 025°19'0 0.0
2019-Oct-06 11:00N 37°27' E 025°19'0 0.0
2019-Oct-06 10:30N 37°27' E 025°19'0 0.0
2019-Oct-06 10:00N 37°27' E 025°19'0 0.0
2019-Oct-06 09:30N 37°27' E 025°19'0 0.0
2019-Oct-06 08:57N 37°27' E 025°19'0 0.0
2019-Oct-06 08:27N 37°27' E 025°19'0 0.0
2019-Oct-06 07:57N 37°27' E 025°19'0 0.0
2019-Oct-06 07:30N 37°27' E 025°19'0 0.0
2019-Oct-06 07:00N 37°27' E 025°19'0 0.0
2019-Oct-06 06:27N 37°27' E 025°19'0 0.1
2019-Oct-06 06:00N 37°27' E 025°19'0 0.0
2019-Oct-06 05:30N 37°27' E 025°19'0 0.0
2019-Oct-06 05:00N 37°27' E 025°19'0 0.0
2019-Oct-06 04:30N 37°27' E 025°19'0 0.1
2019-Oct-06 04:00N 37°27' E 025°19'2 4.4
2019-Oct-06 03:31N 37°28' E 025°17'3 6.2
2019-Oct-06 03:00N 37°29' E 025°13'3 6.5
2019-Oct-06 02:30N 37°29' E 025°09'3 6.1
2019-Oct-06 02:01N 37°30' E 025°05'3 6.1
2019-Oct-06 01:30N 37°30' E 025°01'3 5.9
2019-Oct-06 01:01N 37°31' E 024°58'3 5.8
2019-Oct-06 00:28N 37°32' E 024°54'3 6.0
2019-Oct-06 00:01N 37°32' E 024°50'3 5.9
2019-Oct-05 23:31N 37°32' E 024°47'43 7.0
2019-Oct-05 17:21N 37°35' E 023°52'3 6.9
2019-Oct-05 16:50N 37°36' E 023°48'3 7.3
2019-Oct-05 16:30N 37°38' E 023°46'3 7.1
2019-Oct-05 16:00N 37°40' E 023°43'4 7.9
2019-Oct-05 15:30N 37°43' E 023°40'511.1
2019-Oct-05 15:01N 37°49' E 023°38'510.7
2019-Oct-05 14:31N 37°54' E 023°37'3 4.5
2019-Oct-05 13:56N 37°56' E 023°38'0 0.0
2019-Oct-05 13:29N 37°56' E 023°38'0 0.0
2019-Oct-05 12:56N 37°56' E 023°38'0 0.0
2019-Oct-05 12:29N 37°56' E 023°38'0 0.0
2019-Oct-05 11:56N 37°56' E 023°38'0 0.0
2019-Oct-05 11:23N 37°56' E 023°38'0 0.0
2019-Oct-05 10:59N 37°56' E 023°38'0 0.0
2019-Oct-05 10:26N 37°56' E 023°38'0 0.0
2019-Oct-05 09:59N 37°56' E 023°38'0 0.0
2019-Oct-05 09:20N 37°56' E 023°38'0 0.0
2019-Oct-05 08:53N 37°56' E 023°38'0 0.0
2019-Oct-05 08:26N 37°56' E 023°38'0 0.0
2019-Oct-05 07:56N 37°56' E 023°38'0 0.0
2019-Oct-05 07:29N 37°56' E 023°38'0 0.0
2019-Oct-05 06:56N 37°56' E 023°38'0 0.0
2019-Oct-05 06:26N 37°56' E 023°38'0 0.0
2019-Oct-05 05:56N 37°56' E 023°38'0 0.0
2019-Oct-05 05:20N 37°56' E 023°38'0 0.0
2019-Oct-05 04:50N 37°56' E 023°38'0 0.0
2019-Oct-05 04:26N 37°56' E 023°38'0 0.0
2019-Oct-05 03:52N 37°56' E 023°38'0 1.1
2019-Oct-05 03:30N 37°56' E 023°38'1 2.9
2019-Oct-05 03:00N 37°55' E 023°36'2 3.6
2019-Oct-05 02:30N 37°54' E 023°37'3 6.7
2019-Oct-05 02:00N 37°51' E 023°39'4 7.1
2019-Oct-05 01:30N 37°48' E 023°41'3 6.9
2019-Oct-05 01:00N 37°45' E 023°43'3 6.9
2019-Oct-05 00:30N 37°42' E 023°45'3 6.7
2019-Oct-05 00:00N 37°39' E 023°48'2 4.2
2019-Oct-04 23:29N 37°37' E 023°48'3 5.5
2019-Oct-04 23:00N 37°35' E 023°46'3 5.6
2019-Oct-04 22:28N 37°32' E 023°47'3 5.6
2019-Oct-04 21:55N 37°29' E 023°47'12 5.8
2019-Oct-04 19:54N 37°18' E 023°40'14 4.8
2019-Oct-04 17:03N 37°12' E 023°25'0 4.9
2019-Oct-04 16:58N 37°12' E 023°24'5 5.0
2019-Oct-04 16:02N 37°14' E 023°19'0 5.1
2019-Oct-04 15:59N 37°14' E 023°19'3 5.6
2019-Oct-04 15:30N 37°15' E 023°15'4 5.8
2019-Oct-04 14:48N 37°16' E 023°11'0 0.0
2019-Oct-04 07:55N 37°16' E 023°10'2 4.7
2019-Oct-04 07:30N 37°15' E 023°12'3 5.7
2019-Oct-04 07:00N 37°13' E 023°15'5 5.9
2019-Oct-04 06:12N 37°10' E 023°19'1 6.8
2019-Oct-04 06:00N 37°09' E 023°21'4 7.3
2019-Oct-04 05:27N 37°07' E 023°25'  
Track history (hours):
 
Tides and Currents Weather Stations Pressure Air Temp Water Temp Dewpoint Dewpoint Depression Visibility Wind Speed Wind Dir Waves Ship Positions

Wind Star

Operator: Holland America Line

Last reported at 2019-Oct-14 04:39 UTC. Time now 2019-Oct-18 09:08 UTC.
Position N 37°24' E 025°55'.

Length 134 m; draft 4.1 m.

Type: Ship. MMSI: 309163000.

Date/timePositionNaut miles runAvg speedWind from/ knotsBaromVisibWave heightAir tempDewpointWater temp
2019-Oct-14 04:39N 37°24' E 025°55'212.7
2019-Oct-14 04:30N 37°23' E 025°53'612.1
2019-Oct-14 04:00N 37°23' E 025°45'611.2
2019-Oct-14 03:30N 37°22' E 025°38'511.0
2019-Oct-14 03:00N 37°21' E 025°31'611.0
2019-Oct-14 02:30N 37°21' E 025°25'611.2
2019-Oct-14 02:00N 37°20' E 025°18'611.4
2019-Oct-14 01:31N 37°20' E 025°10'611.2
2019-Oct-14 01:00N 37°19' E 025°03'611.2
2019-Oct-14 00:30N 37°19' E 024°56'510.9
2019-Oct-14 00:00N 37°18' E 024°50'7710.6
2019-Oct-13 16:44N 37°10' E 023°13'311.3
2019-Oct-13 16:28N 37°11' E 023°09'710.4
2019-Oct-13 15:50N 37°14' E 023°02'410.8
2019-Oct-13 15:29N 37°17' E 022°59'1910.6
2019-Oct-13 13:41N 37°34' E 022°47'0 0.7
2019-Oct-13 13:21N 37°34' E 022°47'0 0.0
2019-Oct-13 09:42N 37°34' E 022°47'0 0.0
2019-Oct-13 09:18N 37°34' E 022°47'0 0.0
2019-Oct-13 08:45N 37°34' E 022°47'0 0.0
2019-Oct-13 08:21N 37°34' E 022°47'0 0.0
2019-Oct-13 07:54N 37°34' E 022°47'0 0.0
2019-Oct-13 07:21N 37°34' E 022°47'0 0.0
2019-Oct-13 06:45N 37°34' E 022°47'0 0.0
2019-Oct-13 06:24N 37°34' E 022°47'0 0.0
2019-Oct-13 05:45N 37°34' E 022°47'0 0.0
2019-Oct-13 05:27N 37°34' E 022°47'0 0.0
2019-Oct-13 05:00N 37°34' E 022°47'0 0.0
2019-Oct-13 04:29N 37°34' E 022°47'19 6.9
2019-Oct-13 01:45N 37°17' E 022°58'2 8.1
2019-Oct-13 01:26N 37°15' E 022°60'7 7.9
2019-Oct-13 00:30N 37°09' E 023°04'4 6.1
2019-Oct-12 23:50N 37°07' E 023°09'4 8.0
2019-Oct-12 23:23N 37°07' E 023°13'8 8.4
2019-Oct-12 22:27N 37°09' E 023°23'29 5.1
2019-Oct-12 16:44N 37°33' E 023°44'2 8.0
2019-Oct-12 16:30N 37°35' E 023°44'4 8.6
2019-Oct-12 16:00N 37°39' E 023°43'4 8.9
2019-Oct-12 15:30N 37°43' E 023°40'5 9.2
2019-Oct-12 15:00N 37°47' E 023°38'5 9.8
2019-Oct-12 14:30N 37°52' E 023°36'5 9.2
2019-Oct-12 14:00N 37°56' E 023°38'0 0.4
2019-Oct-12 13:30N 37°56' E 023°38'0 0.0
2019-Oct-12 13:00N 37°56' E 023°38'0 0.0
2019-Oct-12 12:30N 37°56' E 023°38'0 0.0
2019-Oct-12 12:00N 37°56' E 023°38'0 0.0
2019-Oct-12 11:30N 37°56' E 023°38'0 0.0
2019-Oct-12 11:00N 37°56' E 023°38'0 0.0
2019-Oct-12 10:30N 37°56' E 023°38'0 0.0
2019-Oct-12 10:00N 37°56' E 023°38'0 0.0
2019-Oct-12 09:30N 37°56' E 023°38'0 0.0
2019-Oct-12 09:00N 37°56' E 023°38'0 0.0
2019-Oct-12 08:30N 37°56' E 023°38'0 0.0
2019-Oct-12 08:00N 37°56' E 023°38'0 0.0
2019-Oct-12 07:30N 37°56' E 023°38'0 0.0
2019-Oct-12 07:00N 37°56' E 023°38'0 0.0
2019-Oct-12 06:30N 37°56' E 023°38'0 0.0
2019-Oct-12 06:00N 37°56' E 023°38'0 0.0
2019-Oct-12 05:30N 37°56' E 023°38'0 0.0
2019-Oct-12 05:00N 37°56' E 023°38'0 0.0
2019-Oct-12 04:30N 37°56' E 023°38'0 0.0
2019-Oct-12 04:00N 37°56' E 023°38'0 0.0
2019-Oct-12 03:30N 37°56' E 023°38'2 3.1
2019-Oct-12 03:00N 37°56' E 023°36'4 7.7
2019-Oct-12 02:30N 37°52' E 023°38'4 7.3
2019-Oct-12 02:00N 37°49' E 023°40'4 7.1
2019-Oct-12 01:30N 37°45' E 023°42'4 7.1
2019-Oct-12 01:00N 37°42' E 023°44'4 7.3
2019-Oct-12 00:30N 37°39' E 023°46'4 7.5
2019-Oct-12 00:00N 37°35' E 023°46'4 7.9
2019-Oct-11 23:28N 37°31' E 023°47'35 6.4
2019-Oct-11 17:59N 37°09' E 023°12'7 7.7
2019-Oct-11 17:06N 37°09' E 023°04'8 8.7
2019-Oct-11 16:14N 37°16' E 022°59'21 8.5
2019-Oct-11 13:49N 37°34' E 022°47'0 0.3
2019-Oct-11 13:20N 37°34' E 022°47'0 0.0
2019-Oct-11 12:59N 37°34' E 022°47'0 0.0
2019-Oct-11 12:29N 37°34' E 022°47'0 0.0
2019-Oct-11 11:59N 37°34' E 022°47'0 0.0
2019-Oct-11 09:38N 37°34' E 022°47'0 0.0
2019-Oct-11 09:23N 37°34' E 022°47'0 0.0
2019-Oct-11 08:23N 37°34' E 022°47'0 0.0
2019-Oct-11 07:59N 37°34' E 022°47'0 0.0
2019-Oct-11 06:53N 37°34' E 022°47'0 0.0
2019-Oct-11 06:08N 37°34' E 022°47'0 0.0
2019-Oct-11 05:26N 37°34' E 022°47'0 0.0
2019-Oct-11 04:56N 37°34' E 022°47'0 0.0
2019-Oct-11 04:14N 37°34' E 022°47'0 0.5
2019-Oct-11 03:52N 37°34' E 022°47'19 5.8
2019-Oct-11 00:37N 37°17' E 022°58'2 5.8
2019-Oct-11 00:19N 37°16' E 022°59'3 5.8
2019-Oct-10 23:45N 37°13' E 023°01'1 5.3
2019-Oct-10 23:30N 37°12' E 023°02'4 4.7
2019-Oct-10 22:38N 37°08' E 023°05'1 4.6
2019-Oct-10 22:19N 37°07' E 023°05'3 4.9
2019-Oct-10 21:43N 37°04' E 023°07'1 4.9
2019-Oct-10 21:30N 37°03' E 023°07'  
2019-Oct-06 18:16N 37°45' E 025°45'2 8.6
2019-Oct-06 18:00N 37°44' E 025°43'4 8.7
2019-Oct-06 17:31N 37°42' E 025°39'4 8.5
2019-Oct-06 17:00N 37°39' E 025°34'4 8.5
2019-Oct-06 16:30N 37°37' E 025°30'4 8.4
2019-Oct-06 16:00N 37°35' E 025°25'611.1
2019-Oct-06 15:30N 37°32' E 025°19'4 8.5
2019-Oct-06 15:01N 37°28' E 025°18'1 1.8
2019-Oct-06 14:27N 37°27' E 025°19'0 0.0
2019-Oct-06 13:57N 37°27' E 025°19'0 0.0
2019-Oct-06 13:30N 37°27' E 025°19'0 0.0
2019-Oct-06 12:57N 37°27' E 025°19'0 0.0
2019-Oct-06 12:30N 37°27' E 025°19'0 0.0
2019-Oct-06 12:00N 37°27' E 025°19'0 0.0
2019-Oct-06 11:30N 37°27' E 025°19'0 0.0
2019-Oct-06 11:00N 37°27' E 025°19'0 0.0
2019-Oct-06 10:30N 37°27' E 025°19'0 0.0
2019-Oct-06 10:00N 37°27' E 025°19'0 0.0
2019-Oct-06 09:30N 37°27' E 025°19'0 0.0
2019-Oct-06 08:57N 37°27' E 025°19'0 0.0
2019-Oct-06 08:27N 37°27' E 025°19'0 0.0
2019-Oct-06 07:57N 37°27' E 025°19'0 0.0
2019-Oct-06 07:30N 37°27' E 025°19'0 0.0
2019-Oct-06 07:00N 37°27' E 025°19'0 0.0
2019-Oct-06 06:27N 37°27' E 025°19'0 0.1
2019-Oct-06 06:00N 37°27' E 025°19'0 0.0
2019-Oct-06 05:30N 37°27' E 025°19'0 0.0
2019-Oct-06 05:00N 37°27' E 025°19'0 0.0
2019-Oct-06 04:30N 37°27' E 025°19'0 0.1
2019-Oct-06 04:00N 37°27' E 025°19'2 4.4
2019-Oct-06 03:31N 37°28' E 025°17'3 6.2
2019-Oct-06 03:00N 37°29' E 025°13'3 6.5
2019-Oct-06 02:30N 37°29' E 025°09'3 6.1
2019-Oct-06 02:01N 37°30' E 025°05'3 6.1
2019-Oct-06 01:30N 37°30' E 025°01'3 5.9
2019-Oct-06 01:01N 37°31' E 024°58'3 5.8
2019-Oct-06 00:28N 37°32' E 024°54'3 6.0
2019-Oct-06 00:01N 37°32' E 024°50'3 5.9
2019-Oct-05 23:31N 37°32' E 024°47'43 7.0
2019-Oct-05 17:21N 37°35' E 023°52'3 6.9
2019-Oct-05 16:50N 37°36' E 023°48'3 7.3
2019-Oct-05 16:30N 37°38' E 023°46'3 7.1
2019-Oct-05 16:00N 37°40' E 023°43'4 7.9
2019-Oct-05 15:30N 37°43' E 023°40'511.1
2019-Oct-05 15:01N 37°49' E 023°38'510.7
2019-Oct-05 14:31N 37°54' E 023°37'3 4.5
2019-Oct-05 13:56N 37°56' E 023°38'0 0.0
2019-Oct-05 13:29N 37°56' E 023°38'0 0.0
2019-Oct-05 12:56N 37°56' E 023°38'0 0.0
2019-Oct-05 12:29N 37°56' E 023°38'0 0.0
2019-Oct-05 11:56N 37°56' E 023°38'0 0.0
2019-Oct-05 11:23N 37°56' E 023°38'0 0.0
2019-Oct-05 10:59N 37°56' E 023°38'0 0.0
2019-Oct-05 10:26N 37°56' E 023°38'0 0.0
2019-Oct-05 09:59N 37°56' E 023°38'0 0.0
2019-Oct-05 09:20N 37°56' E 023°38'0 0.0
2019-Oct-05 08:53N 37°56' E 023°38'0 0.0
2019-Oct-05 08:26N 37°56' E 023°38'0 0.0
2019-Oct-05 07:56N 37°56' E 023°38'0 0.0
2019-Oct-05 07:29N 37°56' E 023°38'0 0.0
2019-Oct-05 06:56N 37°56' E 023°38'0 0.0
2019-Oct-05 06:26N 37°56' E 023°38'0 0.0
2019-Oct-05 05:56N 37°56' E 023°38'0 0.0
2019-Oct-05 05:20N 37°56' E 023°38'0 0.0
2019-Oct-05 04:50N 37°56' E 023°38'0 0.0
2019-Oct-05 04:26N 37°56' E 023°38'0 0.0
2019-Oct-05 03:52N 37°56' E 023°38'0 1.1
2019-Oct-05 03:30N 37°56' E 023°38'1 2.9
2019-Oct-05 03:00N 37°55' E 023°36'2 3.6
2019-Oct-05 02:30N 37°54' E 023°37'3 6.7
2019-Oct-05 02:00N 37°51' E 023°39'4 7.1
2019-Oct-05 01:30N 37°48' E 023°41'3 6.9
2019-Oct-05 01:00N 37°45' E 023°43'3 6.9
2019-Oct-05 00:30N 37°42' E 023°45'3 6.7
2019-Oct-05 00:00N 37°39' E 023°48'2 4.2
2019-Oct-04 23:29N 37°37' E 023°48'3 5.5
2019-Oct-04 23:00N 37°35' E 023°46'3 5.6
2019-Oct-04 22:28N 37°32' E 023°47'3 5.6
2019-Oct-04 21:55N 37°29' E 023°47'12 5.8
2019-Oct-04 19:54N 37°18' E 023°40'14 4.8
2019-Oct-04 17:03N 37°12' E 023°25'0 4.9
2019-Oct-04 16:58N 37°12' E 023°24'5 5.0
2019-Oct-04 16:02N 37°14' E 023°19'0 5.1
2019-Oct-04 15:59N 37°14' E 023°19'3 5.6
2019-Oct-04 15:30N 37°15' E 023°15'4 5.8
2019-Oct-04 14:48N 37°16' E 023°11'0 0.0
2019-Oct-04 07:55N 37°16' E 023°10'2 4.7
2019-Oct-04 07:30N 37°15' E 023°12'3 5.7
2019-Oct-04 07:00N 37°13' E 023°15'5 5.9
2019-Oct-04 06:12N 37°10' E 023°19'1 6.8
2019-Oct-04 06:00N 37°09' E 023°21'4 7.3
2019-Oct-04 05:27N 37°07' E 023°25'  

Dump ship's entire track history